Accueil
METAR-TAF:

METAR-TAF

Aéroports :

Aéroport de Nîmes–Alès–Camargue–Cévennes, Garons

Nîmes, France

latitude: 43-45N, longitude: 004-25E, altitude: 94 m

Observation

Le bulletin a été fait il y a 34 minutes, à 01:00 UTC
Vent 5 kt de nord/nord-ouest
Température 20°C
Humidité 43%
Pression 1016 hPa
Visibilité 10 km ou plus
pas de nuages en-dessous de 1500 mètres et pas de cumulonimbus.

METAR: LFTW 140100Z AUTO 34005KT CAVOK 20/07 Q1016

Heure: 03:34 (01:34 UTC)

Prévision

Le bulletin a été fait il y a 11 heures et 34 minutes, à 14:00 UTC
Prévision valable du 13 à 15 UTC au 14 à 15 UTC
Vent 5 kt de direction variable
Visibilité 10 km ou plus
pas de nuages en-dessous de 1500 mètres et pas de cumulonimbus.
Temporairement
du 13 à 15 UTC au 13 à 18 UTC
Vent 15 kt de sud
Temporairement
du 14 à 07 UTC au 14 à 12 UTC
Vent 15 kt de nord/nord-ouest

TAF: LFTW 131400Z 1315/1415 VRB05KT CAVOK TEMPO 1315/1318 18015KT TEMPO 1407/1412 34015KT

Observations et prévisions météorologiques de plus de 4000 aéroports (messages METAR et TAF).

Les stations disponibles sont représentées par des disques jaunes et rouges sur la carte.

Passer la souris dessus pour voir le nom de la station.

Cliquer dessus pour voir les observations et prévisions météorologiques.

Pour changer de carte: cliquez sur les boutons verts avec une croix noire pour zoomer, sur le bouton vert avec un tiret pour effectuer un zoom arrière, ou sur les flèches vertes pour les cartes adjacentes.


METAR-TAF: